Time;durP1;ratioP1;P1;durP2;ratioP2;P2;SDS_P1;SDS_P2;PMS_P1;PMS_P2;Temp;Humidity;BMP_temperature;BMP_pressure;BME280_temperature;BME280_humidity;BME280_pressure;Samples;Min_cycle;Max_cycle;Signal;HPM_P1;HPM_P2
2023/01/23 00:01:07;;;;;;;35.28;16.55;;;2.40;99.90;;;;;;4927092;29;20058;-77
2023/01/23 00:03:33;;;;;;;31.50;16.75;;;2.50;99.90;;;;;;4953806;28;20371;-77
2023/01/23 00:06:00;;;;;;;35.33;16.95;;;2.50;99.90;;;;;;4917599;29;20047;-77
2023/01/23 00:08:26;;;;;;;36.60;17.52;;;2.50;99.90;;;;;;4933757;29;20047;-77
2023/01/23 00:10:53;;;;;;;38.22;18.92;;;2.50;99.90;;;;;;4915419;29;20436;-77
2023/01/23 00:13:19;;;;;;;36.08;17.58;;;2.40;99.90;;;;;;4924532;29;20039;-77
2023/01/23 00:15:46;;;;;;;33.55;16.35;;;2.40;99.90;;;;;;4924008;29;20058;-78
2023/01/23 00:18:12;;;;;;;31.30;15.93;;;2.40;99.90;;;;;;4956006;28;20047;-77
2023/01/23 00:20:38;;;;;;;34.53;18.15;;;2.40;99.90;;;;;;4927643;29;20043;-77
2023/01/23 00:23:05;;;;;;;35.08;18.95;;;2.40;99.90;;;;;;4940130;28;20078;-77
2023/01/23 00:25:35;;;;;;;36.58;17.08;;;2.40;99.90;;;;;;4939634;29;20368;-77
2023/01/23 00:28:01;;;;;;;32.85;17.23;;;2.40;99.90;;;;;;4930483;29;20110;-76
2023/01/23 00:30:27;;;;;;;32.78;17.30;;;2.30;99.90;;;;;;4924070;29;20055;-78
2023/01/23 00:32:53;;;;;;;39.42;19.75;;;2.40;99.90;;;;;;4923763;29;20043;-77
2023/01/23 00:35:20;;;;;;;38.38;16.98;;;2.30;99.90;;;;;;4938547;29;20273;-77
2023/01/23 00:37:46;;;;;;;36.45;18.35;;;2.50;99.90;;;;;;4915290;29;20154;-77
2023/01/23 00:40:12;;;;;;;38.85;19.10;;;2.50;99.90;;;;;;4920495;29;20166;-77
2023/01/23 00:42:38;;;;;;;32.15;17.40;;;2.40;99.90;;;;;;4910650;29;20047;-77
2023/01/23 00:45:05;;;;;;;38.00;18.00;;;2.50;99.90;;;;;;4935574;29;20055;-77
2023/01/23 00:47:31;;;;;;;36.08;17.80;;;2.50;99.90;;;;;;4938790;29;20043;-75
2023/01/23 00:49:58;;;;;;;36.28;18.70;;;2.40;99.90;;;;;;4938519;29;20039;-77
2023/01/23 00:52:32;;;;;;;39.88;19.67;;;2.40;99.90;;;;;;4949858;28;20039;-77
2023/01/23 00:54:58;;;;;;;39.13;19.13;;;2.50;99.90;;;;;;4953785;28;20404;-77
2023/01/23 00:57:24;;;;;;;35.50;18.60;;;2.40;99.90;;;;;;4943133;28;20126;-77
2023/01/23 00:59:50;;;;;;;37.33;17.50;;;2.40;99.90;;;;;;4977998;28;20046;-77
2023/01/23 01:02:16;;;;;;;33.85;17.77;;;2.50;99.90;;;;;;4941498;29;20059;-77
2023/01/23 01:04:42;;;;;;;34.53;18.13;;;2.50;99.90;;;;;;4938971;29;20047;-77
2023/01/23 01:07:08;;;;;;;32.70;17.60;;;2.50;99.90;;;;;;4973905;28;20039;-77
2023/01/23 01:09:37;;;;;;;35.03;17.63;;;2.40;99.90;;;;;;4959206;28;20731;-77
2023/01/23 01:12:03;;;;;;;39.47;19.45;;;2.50;99.90;;;;;;4943379;29;20043;-77
2023/01/23 01:14:29;;;;;;;37.30;18.27;;;2.50;99.90;;;;;;4943905;29;20737;-77
2023/01/23 01:16:58;;;;;;;39.08;18.77;;;2.40;99.90;;;;;;4959538;28;20075;-77
2023/01/23 01:19:24;;;;;;;41.78;19.13;;;2.50;99.90;;;;;;4931225;29;20051;-78
2023/01/23 01:21:50;;;;;;;42.08;18.98;;;2.40;99.90;;;;;;4957640;28;20065;-77
2023/01/23 01:24:16;;;;;;;34.97;17.85;;;2.50;99.90;;;;;;4933232;29;20078;-77
2023/01/23 01:26:42;;;;;;;36.65;18.10;;;2.50;99.90;;;;;;4927078;29;20057;-78
2023/01/23 01:29:08;;;;;;;36.97;18.77;;;2.50;99.90;;;;;;4943163;29;20047;-77
2023/01/23 01:31:34;;;;;;;34.65;18.15;;;2.50;99.90;;;;;;4943067;29;20051;-77
2023/01/23 01:34:00;;;;;;;36.63;18.00;;;2.50;99.90;;;;;;4944113;29;20050;-77
2023/01/23 01:36:26;;;;;;;40.13;18.50;;;2.50;99.90;;;;;;4927145;29;20043;-77
2023/01/23 01:38:53;;;;;;;38.80;19.60;;;2.40;99.90;;;;;;4928174;29;20050;-77
2023/01/23 01:41:22;;;;;;;42.15;19.05;;;2.40;99.90;;;;;;4928993;29;20047;-77
2023/01/23 01:43:49;;;;;;;40.13;18.95;;;2.50;99.90;;;;;;4946515;29;20137;-77
2023/01/23 01:46:22;;;;;;;38.90;19.75;;;2.40;99.90;;;;;;4924288;29;20078;-77
2023/01/23 01:49:04;;;;;;;40.58;19.75;;;2.50;99.90;;;;;;4955228;29;20040;-77
2023/01/23 01:51:46;;;;;;;42.60;19.17;;;2.50;99.90;;;;;;4962723;28;20048;-77
2023/01/23 01:54:17;;;;;;;45.47;20.52;;;2.40;99.90;;;;;;4958133;28;20047;-81
2023/01/23 01:56:48;;;;;;;48.38;19.50;;;2.50;99.90;;;;;;4952387;28;20044;-81
2023/01/23 01:59:14;;;;;;;45.03;21.58;;;2.40;99.90;;;;;;4929290;29;20793;-81
2023/01/23 02:01:40;;;;;;;47.30;22.20;;;2.50;99.90;;;;;;4936661;29;20063;-81
2023/01/23 02:04:06;;;;;;;55.45;24.40;;;2.40;99.90;;;;;;4965842;28;20520;-80
2023/01/23 02:06:34;;;;;;;52.20;23.92;;;2.40;99.90;;;;;;4941240;28;20435;-80
2023/01/23 02:09:20;;;;;;;55.28;21.75;;;2.50;99.90;;;;;;4941259;29;20130;-80
2023/01/23 02:11:49;;;;;;;55.17;23.42;;;2.50;99.90;;;;;;4950715;29;20034;-81
2023/01/23 02:14:15;;;;;;;53.40;21.30;;;2.40;99.90;;;;;;4924525;29;20090;-80
2023/01/23 02:16:45;;;;;;;49.00;21.48;;;2.30;99.90;;;;;;4957149;28;20145;-81
2023/01/23 02:19:51;;;;;;;50.15;21.30;;;2.40;99.90;;;;;;4931627;29;20056;-80
2023/01/23 02:22:49;;;;;;;54.13;22.40;;;2.40;99.90;;;;;;4954666;28;20109;-80
2023/01/23 02:25:44;;;;;;;46.50;20.38;;;2.40;99.90;;;;;;4955477;28;20047;-81
2023/01/23 02:28:10;;;;;;;46.38;20.75;;;2.40;99.90;;;;;;4951905;29;20581;-81
2023/01/23 02:30:38;;;;;;;48.25;20.02;;;2.40;99.90;;;;;;4924540;29;20433;-80
2023/01/23 02:33:21;;;;;;;47.88;21.08;;;2.50;99.90;;;;;;4925408;29;20047;-77
2023/01/23 02:35:47;;;;;;;41.80;19.40;;;2.40;99.90;;;;;;4941973;29;20039;-77
2023/01/23 02:38:13;;;;;;;45.90;19.30;;;2.50;99.90;;;;;;4925105;29;20480;-77
2023/01/23 02:40:41;;;;;;;51.70;21.77;;;2.40;99.90;;;;;;4926057;29;20102;-77
2023/01/23 02:43:12;;;;;;;47.85;19.60;;;2.50;99.90;;;;;;4940805;29;20050;-77
2023/01/23 02:45:38;;;;;;;44.22;19.30;;;2.50;99.90;;;;;;4938714;29;20047;-77
2023/01/23 02:48:07;;;;;;;47.50;20.00;;;2.50;99.90;;;;;;4924349;29;20094;-77
2023/01/23 02:50:34;;;;;;;48.05;19.55;;;2.40;99.90;;;;;;4925419;29;20109;-77
2023/01/23 02:53:02;;;;;;;48.75;19.27;;;2.40;99.90;;;;;;4940690;29;20085;-77
2023/01/23 02:55:32;;;;;;;42.88;19.08;;;2.40;99.90;;;;;;4940821;28;20047;-77
2023/01/23 03:00:51;;;;;;;51.30;19.90;;;2.40;99.90;;;;;;4926663;29;20044;-77
2023/01/23 03:03:17;;;;;;;47.80;19.02;;;2.50;99.90;;;;;;4934128;29;20050;-77
2023/01/23 03:05:44;;;;;;;43.30;19.40;;;2.40;99.90;;;;;;4940138;28;20170;-77
2023/01/23 03:08:12;;;;;;;40.97;19.02;;;2.40;99.90;;;;;;4909135;29;20078;-77
2023/01/23 03:10:38;;;;;;;;;;;2.40;99.90;;;;;;4972841;28;20098;-77
2023/01/23 03:13:06;;;;;;;56.90;19.90;;;2.40;99.90;;;;;;4972344;28;19914;-77
2023/01/23 03:15:41;;;;;;;43.55;18.02;;;2.40;99.90;;;;;;4945878;28;20204;-77
2023/01/23 03:18:07;;;;;;;45.10;19.63;;;2.40;99.90;;;;;;4942246;28;20053;-77
2023/01/23 03:20:40;;;;;;;37.72;17.48;;;2.40;99.90;;;;;;4939560;29;20059;-77
2023/01/23 03:23:07;;;;;;;44.25;18.48;;;2.40;99.90;;;;;;4939337;28;20053;-77
2023/01/23 03:25:35;;;;;;;43.97;18.95;;;2.40;99.90;;;;;;4938966;28;20051;-77
2023/01/23 03:28:02;;;;;;;47.53;17.70;;;2.30;99.90;;;;;;4940122;29;20082;-77
2023/01/23 03:30:28;;;;;;;39.60;17.02;;;2.40;99.90;;;;;;4945797;28;20063;-77
2023/01/23 03:32:54;;;;;;;43.65;18.55;;;2.40;99.90;;;;;;4924082;29;20049;-76
2023/01/23 03:35:20;;;;;;;38.50;17.85;;;2.40;99.90;;;;;;4924151;29;20062;-76
2023/01/23 03:37:49;;;;;;;46.78;18.58;;;2.50;99.90;;;;;;4939810;29;20544;-78
2023/01/23 03:43:07;;;;;;;50.97;19.95;;;2.50;99.90;;;;;;4944887;28;20134;-77
2023/01/23 03:45:33;;;;;;;51.78;19.63;;;2.40;99.90;;;;;;4943681;29;20047;-77
2023/01/23 03:47:59;;;;;;;52.17;18.63;;;2.40;99.90;;;;;;4921585;29;20043;-77
2023/01/23 03:50:26;;;;;;;61.13;21.90;;;2.30;99.90;;;;;;4935436;29;20039;-77
2023/01/23 03:52:52;;;;;;;52.90;19.17;;;2.30;99.90;;;;;;4956616;28;20467;-77
2023/01/23 03:55:20;;;;;;;;;;;2.30;99.90;;;;;;4940615;29;20043;-77
2023/01/23 03:57:51;;;;;;;44.03;17.30;;;2.40;99.90;;;;;;4955586;28;20395;-77
2023/01/23 04:00:20;;;;;;;63.90;22.90;;;2.40;99.90;;;;;;4940929;28;20113;-77
2023/01/23 04:02:46;;;;;;;68.72;22.05;;;2.40;99.90;;;;;;4923620;29;20043;-77
2023/01/23 04:05:12;;;;;;;51.08;21.20;;;2.40;99.90;;;;;;4921230;29;20051;-77
2023/01/23 04:07:41;;;;;;;50.35;19.70;;;2.40;99.90;;;;;;4970998;28;20039;-77
2023/01/23 04:10:10;;;;;;;45.53;18.73;;;2.30;99.90;;;;;;4955748;28;20071;-81
2023/01/23 04:12:35;;;;;;;46.45;18.38;;;2.30;99.90;;;;;;4954166;28;20039;-80
2023/01/23 04:15:01;;;;;;;50.75;19.58;;;2.30;99.90;;;;;;4920982;29;20544;-80
2023/01/23 04:17:27;;;;;;;49.45;19.60;;;2.30;99.90;;;;;;4942104;29;20043;-80
2023/01/23 04:19:53;;;;;;;44.58;18.98;;;2.30;99.90;;;;;;4957259;28;20054;-80
2023/01/23 04:22:18;;;;;;;43.10;19.02;;;2.30;99.90;;;;;;4938708;28;20054;-80
2023/01/23 04:24:44;;;;;;;41.15;18.23;;;2.40;99.90;;;;;;4922589;29;20377;-80
2023/01/23 04:27:10;;;;;;;40.97;17.88;;;2.40;99.90;;;;;;4922743;29;20142;-80
2023/01/23 04:29:36;;;;;;;46.58;19.75;;;2.30;99.90;;;;;;4938398;28;20095;-80
2023/01/23 04:32:01;;;;;;;43.88;19.13;;;2.40;99.90;;;;;;4932282;29;20066;-80
2023/01/23 04:34:27;;;;;;;41.42;18.38;;;2.40;99.90;;;;;;4937940;29;20064;-80
2023/01/23 04:36:53;;;;;;;46.22;20.08;;;2.40;99.90;;;;;;4931433;29;20058;-80
2023/01/23 04:39:18;;;;;;;52.88;19.67;;;2.30;99.90;;;;;;4926255;29;20689;-80
2023/01/23 04:41:44;;;;;;;42.83;18.75;;;2.40;99.90;;;;;;4940044;29;20056;-80
2023/01/23 04:44:19;;;;;;;46.63;20.33;;;2.40;99.90;;;;;;4949780;29;20142;-80
2023/01/23 04:46:54;;;;;;;41.72;19.17;;;2.30;99.90;;;;;;4951142;29;20118;-76
2023/01/23 04:49:21;;;;;;;39.22;18.48;;;2.30;99.90;;;;;;4933167;28;20043;-77
2023/01/23 04:51:47;;;;;;;42.00;18.20;;;2.20;99.90;;;;;;4935877;28;20047;-77
2023/01/23 04:54:13;;;;;;;39.03;19.00;;;2.40;99.90;;;;;;4940653;29;20040;-77
2023/01/23 04:56:39;;;;;;;41.60;19.90;;;2.30;99.90;;;;;;4947035;29;20075;-77
2023/01/23 04:59:05;;;;;;;40.90;18.92;;;2.30;99.90;;;;;;4943551;29;20129;-77
2023/01/23 05:01:31;;;;;;;35.38;18.80;;;2.30;99.90;;;;;;4942208;29;20109;-76
2023/01/23 05:03:57;;;;;;;37.35;16.92;;;2.40;99.90;;;;;;4943993;28;20125;-76
2023/01/23 05:06:23;;;;;;;40.35;18.73;;;2.20;99.90;;;;;;4930361;29;20044;-77
2023/01/23 05:08:48;;;;;;;32.20;16.45;;;2.20;99.90;;;;;;4940117;29;20039;-76
2023/01/23 05:11:14;;;;;;;38.88;18.10;;;2.20;99.90;;;;;;4912935;29;20055;-77
2023/01/23 05:13:40;;;;;;;38.92;17.88;;;2.20;99.90;;;;;;4928404;29;20203;-76
2023/01/23 05:16:06;;;;;;;32.65;17.35;;;2.30;99.90;;;;;;4923507;29;20461;-79
2023/01/23 05:18:32;;;;;;;39.70;20.17;;;2.40;99.90;;;;;;4941527;29;20071;-80
2023/01/23 05:20:57;;;;;;;39.58;18.13;;;2.30;99.90;;;;;;4925282;29;20098;-79
2023/01/23 05:23:23;;;;;;;38.05;17.90;;;2.30;99.90;;;;;;4919287;29;20547;-79
2023/01/23 05:25:52;;;;;;;38.45;18.58;;;2.20;99.90;;;;;;4936754;29;20058;-79
2023/01/23 05:28:17;;;;;;;32.50;17.42;;;2.20;99.90;;;;;;4931462;28;20385;-79
2023/01/23 05:30:43;;;;;;;30.92;15.98;;;2.20;99.90;;;;;;4949260;29;20053;-79
2023/01/23 05:33:09;;;;;;;33.95;17.20;;;2.20;99.90;;;;;;4927475;29;20674;-80
2023/01/23 05:35:36;;;;;;;28.52;15.52;;;2.20;99.90;;;;;;4939372;29;20039;-80
2023/01/23 05:38:02;;;;;;;30.00;15.80;;;2.10;99.90;;;;;;4941638;29;20070;-80
2023/01/23 05:40:28;;;;;;;28.73;14.88;;;2.20;99.90;;;;;;4940432;28;20047;-81
2023/01/23 05:42:54;;;;;;;25.92;14.88;;;2.20;99.90;;;;;;4923934;29;20058;-80
2023/01/23 05:45:20;;;;;;;27.83;16.20;;;2.30;99.90;;;;;;4924572;29;20055;-80
2023/01/23 05:47:46;;;;;;;27.98;15.80;;;2.20;99.90;;;;;;4922840;29;20441;-80
2023/01/23 05:50:14;;;;;;;27.23;15.30;;;2.20;99.90;;;;;;4958256;28;20122;-80
2023/01/23 05:52:40;;;;;;;28.27;15.75;;;2.20;99.90;;;;;;4936988;29;20221;-80
2023/01/23 05:55:06;;;;;;;29.23;16.50;;;2.10;99.90;;;;;;4940610;28;20039;-79
2023/01/23 05:57:32;;;;;;;25.30;13.45;;;2.20;99.90;;;;;;4941061;29;20067;-76
2023/01/23 05:59:58;;;;;;;23.42;14.35;;;2.20;99.90;;;;;;4942029;29;20051;-77
2023/01/23 06:02:24;;;;;;;26.73;14.43;;;2.30;99.90;;;;;;4942537;29;20118;-76
2023/01/23 06:04:50;;;;;;;23.52;13.38;;;2.30;99.90;;;;;;4958422;28;20075;-76
2023/01/23 06:07:16;;;;;;;23.10;14.30;;;2.30;99.90;;;;;;4926913;29;20495;-77
2023/01/23 06:09:42;;;;;;;23.80;14.35;;;2.30;99.90;;;;;;4944388;29;20091;-77
2023/01/23 06:12:09;;;;;;;23.50;13.35;;;2.30;99.90;;;;;;4944204;29;20070;-77
2023/01/23 06:14:38;;;;;;;26.45;14.45;;;2.30;99.90;;;;;;4926763;29;20058;-78
2023/01/23 06:17:04;;;;;;;23.52;14.70;;;2.30;99.90;;;;;;4940978;29;20050;-78
2023/01/23 06:19:33;;;;;;;28.58;16.20;;;2.30;99.90;;;;;;4925333;29;20058;-77
2023/01/23 06:22:05;;;;;;;25.98;15.32;;;2.30;99.90;;;;;;4957073;28;20054;-77
2023/01/23 06:24:31;;;;;;;31.80;17.65;;;2.20;99.90;;;;;;4957573;28;20046;-76
2023/01/23 06:26:57;;;;;;;28.42;17.13;;;2.30;99.90;;;;;;4942242;29;20043;-77
2023/01/23 06:29:23;;;;;;;28.70;15.73;;;2.10;99.90;;;;;;4924976;29;20040;-77
2023/01/23 06:31:49;;;;;;;31.50;15.60;;;2.10;99.90;;;;;;4940909;29;20065;-77
2023/01/23 06:34:15;;;;;;;32.70;16.77;;;2.20;99.90;;;;;;4942592;29;20476;-77
2023/01/23 06:36:41;;;;;;;26.80;16.05;;;2.20;99.90;;;;;;4939357;29;20043;-77
2023/01/23 06:39:07;;;;;;;30.25;16.63;;;2.30;99.90;;;;;;4936603;29;20385;-77
2023/01/23 06:41:33;;;;;;;30.95;16.13;;;2.30;99.90;;;;;;4920834;29;20472;-77
2023/01/23 06:44:02;;;;;;;31.15;16.88;;;2.20;99.90;;;;;;4942359;29;20043;-77
2023/01/23 06:46:28;;;;;;;31.40;17.48;;;2.30;99.90;;;;;;4946632;29;20059;-77
2023/01/23 06:48:54;;;;;;;32.92;17.38;;;2.30;99.90;;;;;;4927560;29;20054;-77
2023/01/23 06:51:20;;;;;;;30.23;17.13;;;2.50;99.90;;;;;;4941051;29;20043;-77
2023/01/23 06:53:49;;;;;;;33.47;16.92;;;2.40;99.90;;;;;;4924794;29;20369;-78
2023/01/23 06:56:14;;;;;;;32.30;17.13;;;2.30;99.90;;;;;;4920298;29;20106;-79
2023/01/23 06:58:42;;;;;;;38.25;18.95;;;2.30;99.90;;;;;;4957031;28;20110;-80
2023/01/23 07:01:14;;;;;;;35.13;18.40;;;2.20;99.90;;;;;;4944874;29;20043;-80
2023/01/23 07:03:41;;;;;;;32.78;16.75;;;2.20;99.90;;;;;;4935962;29;20055;-80
2023/01/23 07:06:07;;;;;;;30.80;16.95;;;2.30;99.90;;;;;;4952506;29;20120;-80
2023/01/23 07:08:33;;;;;;;34.33;17.65;;;2.30;99.90;;;;;;4955596;29;20063;-80
2023/01/23 07:11:00;;;;;;;30.63;16.48;;;2.20;99.90;;;;;;4956402;28;20508;-80
2023/01/23 07:13:25;;;;;;;29.52;16.63;;;2.10;99.90;;;;;;4929444;29;20043;-80
2023/01/23 07:15:55;;;;;;;31.90;16.60;;;2.20;99.90;;;;;;4944786;28;20040;-78
2023/01/23 07:18:21;;;;;;;34.78;17.48;;;2.20;99.90;;;;;;4952087;29;20066;-77
2023/01/23 07:20:48;;;;;;;33.50;16.35;;;2.20;99.90;;;;;;4923257;29;20054;-78
2023/01/23 07:23:14;;;;;;;31.98;16.75;;;2.30;99.90;;;;;;4923479;29;20070;-77
2023/01/23 07:25:40;;;;;;;33.03;16.92;;;2.40;99.90;;;;;;4918165;29;20057;-78
2023/01/23 07:28:06;;;;;;;34.72;18.02;;;2.40;99.90;;;;;;4936994;29;20047;-78
2023/01/23 07:30:40;;;;;;;31.88;17.00;;;2.40;99.90;;;;;;4932879;29;20061;-78
2023/01/23 07:33:06;;;;;;;37.10;17.70;;;2.40;99.90;;;;;;4939576;29;20098;-77
2023/01/23 07:35:35;;;;;;;35.50;16.15;;;2.20;99.90;;;;;;4964725;28;20105;-77
2023/01/23 07:38:04;;;;;;;35.35;17.02;;;2.30;99.90;;;;;;4943061;28;20051;-77
2023/01/23 07:40:32;;;;;;;34.88;17.52;;;2.30;99.90;;;;;;4914948;29;20058;-76
2023/01/23 07:43:07;;;;;;;35.13;16.63;;;2.40;99.90;;;;;;4922882;28;20047;-80
2023/01/23 07:45:33;;;;;;;32.05;16.02;;;2.30;99.90;;;;;;4940958;29;20511;-80
2023/01/23 07:47:58;;;;;;;37.78;17.33;;;2.30;99.90;;;;;;4938862;28;20132;-80
2023/01/23 07:50:24;;;;;;;34.92;16.42;;;2.30;99.90;;;;;;4937182;28;20054;-80
2023/01/23 07:52:50;;;;;;;37.10;16.85;;;2.30;99.90;;;;;;4947376;29;20047;-79
2023/01/23 07:55:17;;;;;;;38.40;18.65;;;2.40;99.90;;;;;;4938551;29;20054;-79
2023/01/23 07:57:42;;;;;;;39.85;18.92;;;2.50;99.90;;;;;;4922736;29;20078;-79
2023/01/23 08:00:09;;;;;;;35.75;17.60;;;2.40;99.90;;;;;;4934038;28;20043;-79
2023/01/23 08:02:36;;;;;;;36.28;17.60;;;2.60;99.90;;;;;;4958246;28;20039;-79
2023/01/23 08:05:02;;;;;;;37.38;17.55;;;2.50;99.90;;;;;;4949393;28;20039;-79
2023/01/23 08:07:28;;;;;;;38.05;17.45;;;2.30;99.90;;;;;;4938658;29;20043;-80
2023/01/23 08:09:54;;;;;;;42.17;18.33;;;2.40;99.90;;;;;;4917093;29;20784;-79
2023/01/23 08:12:19;;;;;;;40.75;18.35;;;2.50;99.90;;;;;;4936818;29;20039;-80
2023/01/23 08:14:46;;;;;;;37.03;18.15;;;2.50;99.90;;;;;;4916038;29;20125;-80
2023/01/23 08:17:12;;;;;;;38.70;18.25;;;2.50;99.90;;;;;;4934288;28;20055;-80
2023/01/23 08:19:38;;;;;;;42.28;18.35;;;2.60;99.90;;;;;;4938490;29;20039;-80
2023/01/23 08:22:04;;;;;;;41.60;18.35;;;2.70;99.90;;;;;;4938534;29;20424;-80
2023/01/23 08:24:29;;;;;;;42.80;19.27;;;2.60;99.90;;;;;;4938366;29;20047;-80
2023/01/23 08:26:55;;;;;;;43.85;19.08;;;2.60;99.90;;;;;;4952187;28;20688;-80
2023/01/23 08:29:21;;;;;;;45.05;19.15;;;2.50;99.90;;;;;;4920182;29;20050;-80
2023/01/23 08:31:47;;;;;;;44.75;19.65;;;2.50;99.90;;;;;;4927961;29;20441;-80
2023/01/23 08:34:13;;;;;;;45.92;19.33;;;2.50;99.90;;;;;;4926817;29;20444;-80
2023/01/23 08:36:38;;;;;;;43.20;19.02;;;2.50;99.90;;;;;;4956749;28;20047;-77
2023/01/23 08:39:04;;;;;;;55.90;20.77;;;2.50;99.90;;;;;;4939087;29;20046;-77
2023/01/23 08:41:30;;;;;;;41.17;19.10;;;2.50;99.90;;;;;;4938879;29;20047;-77
2023/01/23 08:44:00;;;;;;;49.80;20.85;;;2.50;99.90;;;;;;4922601;29;20894;-77
2023/01/23 08:46:29;;;;;;;45.35;19.83;;;2.40;99.90;;;;;;4954768;28;20114;-78
2023/01/23 08:48:55;;;;;;;46.92;19.98;;;2.50;99.90;;;;;;4941606;29;20040;-78
2023/01/23 08:51:20;;;;;;;54.30;20.50;;;2.40;99.90;;;;;;4938934;29;20129;-77
2023/01/23 08:53:46;;;;;;;52.15;19.70;;;2.40;99.90;;;;;;4937690;29;20043;-77
2023/01/23 08:56:17;;;;;;;66.47;21.42;;;2.60;99.90;;;;;;4948097;28;20520;-77
2023/01/23 08:58:43;;;;;;;52.08;20.60;;;2.40;99.90;;;;;;4927156;29;20055;-76
2023/01/23 09:01:13;;;;;;;47.63;19.70;;;2.50;99.90;;;;;;4918639;29;20078;-77
2023/01/23 09:03:42;;;;;;;51.10;20.50;;;2.50;99.90;;;;;;4918382;29;20043;-77
2023/01/23 09:06:09;;;;;;;48.95;18.35;;;2.40;99.90;;;;;;4936905;29;20065;-77
2023/01/23 09:08:35;;;;;;;72.65;21.42;;;2.50;99.90;;;;;;4922259;29;20043;-77
2023/01/23 09:11:02;;;;;;;53.72;18.95;;;2.40;99.90;;;;;;4922577;29;20055;-77
2023/01/23 09:13:28;;;;;;;48.28;20.55;;;2.50;99.90;;;;;;4922231;29;20035;-77
2023/01/23 09:15:53;;;;;;;47.58;19.90;;;2.60;99.90;;;;;;4954289;28;20333;-77
2023/01/23 09:18:21;;;;;;;60.42;20.38;;;2.60;99.90;;;;;;4937624;29;20047;-77
2023/01/23 09:20:50;;;;;;;57.13;20.10;;;2.60;99.90;;;;;;4940794;28;20047;-78
2023/01/23 09:23:16;;;;;;;44.05;19.02;;;2.70;99.90;;;;;;4940086;29;20518;-76
2023/01/23 09:25:41;;;;;;;54.92;19.77;;;2.70;99.90;;;;;;4941449;29;20127;-76
2023/01/23 09:28:07;;;;;;;46.63;19.20;;;2.60;99.90;;;;;;4957615;28;20191;-77
2023/01/23 09:30:33;;;;;;;51.75;18.85;;;2.50;99.90;;;;;;4925706;29;20194;-78
2023/01/23 09:32:59;;;;;;;44.25;17.33;;;2.60;99.90;;;;;;4941628;29;20039;-77
2023/01/23 09:35:25;;;;;;;50.50;17.13;;;2.60;99.90;;;;;;4918959;29;20058;-77
2023/01/23 09:38:00;;;;;;;46.80;18.13;;;2.60;99.90;;;;;;4941346;29;20130;-77
2023/01/23 09:40:37;;;;;;;52.05;20.58;;;2.70;99.90;;;;;;4927772;29;20055;-77
2023/01/23 09:43:41;;;;;;;45.25;17.30;;;2.70;99.90;;;;;;4941335;29;20130;-76
2023/01/23 09:46:10;;;;;;;44.83;18.50;;;2.60;99.90;;;;;;4956949;28;20091;-76
2023/01/23 09:48:46;;;;;;;49.63;19.25;;;2.60;99.90;;;;;;4957576;28;20122;-77
2023/01/23 09:51:16;;;;;;;40.05;16.73;;;2.70;99.90;;;;;;4938904;29;20047;-77
2023/01/23 09:53:42;;;;;;;45.92;18.13;;;2.70;99.90;;;;;;4968197;28;20070;-77
2023/01/23 09:56:29;;;;;;;40.70;17.92;;;2.60;99.90;;;;;;4963438;28;20489;-77
2023/01/23 09:58:59;;;;;;;49.08;18.13;;;2.70;99.90;;;;;;4921261;29;20078;-78
2023/01/23 10:01:27;;;;;;;46.13;18.40;;;2.70;99.90;;;;;;4944222;29;20047;-76
2023/01/23 10:03:52;;;;;;;38.17;16.85;;;2.80;99.90;;;;;;4936769;29;20431;-76
2023/01/23 10:06:27;;;;;;;46.83;17.80;;;2.80;99.90;;;;;;4922360;29;20679;-76
2023/01/23 10:09:22;;;;;;;45.03;17.92;;;2.90;99.90;;;;;;4935770;29;20039;-77
2023/01/23 10:12:42;;;;;;;44.17;18.20;;;2.80;99.90;;;;;;4936849;29;20058;-77
2023/01/23 10:15:26;;;;;;;52.10;18.45;;;2.60;99.90;;;;;;4878905;29;20056;-77
2023/01/23 10:18:32;;;;;;;39.47;17.70;;;2.60;99.90;;;;;;4927817;29;20059;-79
2023/01/23 10:21:10;;;;;;;37.42;15.73;;;2.60;99.90;;;;;;4956135;29;20054;-79
2023/01/23 10:23:35;;;;;;;;;;;2.70;99.90;;;;;;4963801;28;20038;-79
2023/01/23 10:26:01;;;;;;;40.00;16.83;;;2.70;99.90;;;;;;4963083;28;19925;-80
2023/01/23 10:28:38;;;;;;;44.75;18.30;;;2.60;99.90;;;;;;4952606;28;20380;-79
2023/01/23 10:31:09;;;;;;;42.30;17.73;;;2.60;99.90;;;;;;4936019;29;20063;-78
2023/01/23 10:33:43;;;;;;;46.38;20.23;;;2.70;99.90;;;;;;4925634;28;20039;-78
2023/01/23 10:36:29;;;;;;;41.55;17.13;;;2.80;99.90;;;;;;4917148;29;20055;-78
2023/01/23 10:39:07;;;;;;;42.95;17.48;;;2.80;99.90;;;;;;4954691;29;20631;-78
2023/01/23 10:41:33;;;;;;;40.90;17.13;;;2.80;99.90;;;;;;4945618;29;20135;-79
2023/01/23 10:43:59;;;;;;;39.25;16.65;;;2.80;99.90;;;;;;4933533;29;20436;-79
2023/01/23 10:46:34;;;;;;;37.50;16.25;;;2.90;99.90;;;;;;4917440;29;20055;-79
2023/01/23 10:49:01;;;;;;;40.67;16.92;;;2.80;99.90;;;;;;4954755;28;20491;-80
2023/01/23 10:51:43;;;;;;;39.53;16.95;;;2.90;99.90;;;;;;4933108;28;20093;-80
2023/01/23 10:54:17;;;;;;;36.15;16.42;;;2.80;99.90;;;;;;4922037;29;20043;-79
2023/01/23 10:57:17;;;;;;;36.90;16.23;;;2.90;99.90;;;;;;4924962;29;20425;-79
2023/01/23 10:59:49;;;;;;;35.53;16.08;;;2.90;99.90;;;;;;4936343;29;20531;-79
2023/01/23 11:02:14;;;;;;;45.17;18.73;;;2.80;99.90;;;;;;4952529;29;20048;-80
2023/01/23 11:04:42;;;;;;;35.80;16.17;;;2.80;99.90;;;;;;4936871;29;20051;-80
2023/01/23 11:07:22;;;;;;;39.38;17.27;;;2.90;99.90;;;;;;4919403;29;20532;-80
2023/01/23 11:10:14;;;;;;;44.88;17.42;;;2.90;99.90;;;;;;4932783;29;20073;-77
2023/01/23 11:12:52;;;;;;;42.40;18.00;;;3.00;99.90;;;;;;4929214;29;20058;-77
2023/01/23 11:15:20;;;;;;;;;;;3.00;99.90;;;;;;4937886;28;20047;-78
2023/01/23 11:17:46;;;;;;;32.90;15.25;;;3.00;99.90;;;;;;4971531;28;19911;-76
2023/01/23 11:20:31;;;;;;;34.08;15.50;;;3.10;99.90;;;;;;4934824;29;20043;-78
2023/01/23 11:23:07;;;;;;;33.30;16.05;;;3.10;99.90;;;;;;4933899;28;20043;-77
2023/01/23 11:25:35;;;;;;;33.25;15.23;;;3.10;99.90;;;;;;4934906;29;20135;-77
2023/01/23 11:28:02;;;;;;;;;;;3.10;99.90;;;;;;4939575;29;20137;-76
2023/01/23 11:30:39;;;;;;;32.20;15.13;;;3.00;99.90;;;;;;4966976;28;20001;-77
2023/01/23 11:33:11;;;;;;;34.20;15.55;;;3.00;99.90;;;;;;4921450;28;20054;-77
2023/01/23 11:36:01;;;;;;;33.80;15.52;;;3.00;99.90;;;;;;4927804;29;20058;-77
2023/01/23 11:38:38;;;;;;;38.58;16.52;;;3.00;99.90;;;;;;4957071;28;20071;-78
2023/01/23 11:41:04;;;;;;;36.33;16.45;;;3.00;99.90;;;;;;4936401;29;20062;-77
2023/01/23 11:43:30;;;;;;;36.50;16.63;;;3.00;99.90;;;;;;4936181;29;20052;-77
2023/01/23 11:46:23;;;;;;;36.45;15.88;;;3.00;99.90;;;;;;4932659;29;20426;-74
2023/01/23 11:49:21;;;;;;;38.50;16.20;;;3.00;99.90;;;;;;4951927;29;20043;-76
2023/01/23 11:52:00;;;;;;;36.65;16.45;;;2.90;99.90;;;;;;4940152;29;20171;-77
2023/01/23 11:54:44;;;;;;;34.88;15.02;;;2.90;99.90;;;;;;4954744;29;20043;-77
2023/01/23 11:57:29;;;;;;;33.58;15.60;;;3.00;99.90;;;;;;4951469;29;20477;-77
2023/01/23 12:00:30;;;;;;;32.13;15.55;;;3.10;99.90;;;;;;4955691;28;20071;-77
2023/01/23 12:03:14;;;;;;;33.47;15.98;;;3.10;99.90;;;;;;4934631;29;20078;-77
2023/01/23 12:05:58;;;;;;;35.83;15.93;;;3.10;99.90;;;;;;4959725;28;20062;-77
2023/01/23 12:08:33;;;;;;;33.65;14.88;;;3.00;99.90;;;;;;4964360;28;20050;-76
2023/01/23 12:11:10;;;;;;;34.70;15.85;;;3.20;99.90;;;;;;4950375;29;20528;-76
2023/01/23 12:13:39;;;;;;;32.85;15.27;;;3.20;99.90;;;;;;4933187;29;20039;-77
2023/01/23 12:16:14;;;;;;;35.13;15.52;;;3.20;99.90;;;;;;4959859;28;20051;-77
2023/01/23 12:18:59;;;;;;;30.17;14.63;;;3.30;99.90;;;;;;4952446;29;20053;-76
2023/01/23 12:21:24;;;;;;;31.35;15.02;;;3.30;99.90;;;;;;4963390;28;20056;-75
2023/01/23 12:24:09;;;;;;;32.50;14.98;;;3.30;99.90;;;;;;4951124;29;20384;-75
2023/01/23 12:26:37;;;;;;;30.45;15.30;;;3.40;99.90;;;;;;4951276;29;20051;-76
2023/01/23 12:29:31;;;;;;;31.75;14.57;;;3.30;99.90;;;;;;4914630;29;20055;-76
2023/01/23 12:32:03;;;;;;;30.90;14.18;;;3.20;99.90;;;;;;4955271;28;20062;-75
2023/01/23 12:34:43;;;;;;;31.55;14.57;;;3.20;99.90;;;;;;4968907;28;20047;-75
2023/01/23 12:37:21;;;;;;;29.63;14.05;;;3.30;99.90;;;;;;4954543;28;20047;-79
2023/01/23 12:40:06;;;;;;;29.90;14.80;;;3.10;99.90;;;;;;4936972;29;20142;-78
2023/01/23 12:43:00;;;;;;;29.63;14.30;;;3.10;99.90;;;;;;4954553;28;20130;-78
2023/01/23 12:45:29;;;;;;;29.10;13.55;;;3.20;99.90;;;;;;4926135;28;20502;-77
2023/01/23 12:48:21;;;;;;;32.15;14.02;;;3.10;99.90;;;;;;4915348;29;20468;-78
2023/01/23 12:50:50;;;;;;;29.08;14.57;;;3.10;99.90;;;;;;4935559;29;20472;-78
2023/01/23 12:53:17;;;;;;;31.58;13.75;;;3.10;99.90;;;;;;4938187;29;20051;-78
2023/01/23 12:55:52;;;;;;;36.92;16.40;;;3.20;99.90;;;;;;4919293;29;20043;-78
2023/01/23 12:58:18;;;;;;;31.92;15.40;;;3.10;99.90;;;;;;4956909;28;20098;-78